Time;durP1;ratioP1;P1;durP2;ratioP2;P2;SDS_P1;SDS_P2;PMS_P1;PMS_P2;Temp;Humidity;BMP_temperature;BMP_pressure;BME280_temperature;BME280_humidity;BME280_pressure;Samples;Min_cycle;Max_cycle;Signal;HPM_P1;HPM_P2
2022/06/01 00:02:16;;;;;;;9.15;5.97;;;12.10;99.90;;;;;;5018136;28;20468;-72
2022/06/01 00:04:42;;;;;;;7.85;6.50;;;12.00;99.90;;;;;;5034736;28;20052;-72
2022/06/01 00:07:07;;;;;;;9.77;6.93;;;12.00;99.90;;;;;;5034572;28;20521;-72
2022/06/01 00:09:33;;;;;;;7.38;6.50;;;12.00;99.90;;;;;;5034455;28;20114;-73
2022/06/01 00:11:58;;;;;;;8.63;6.90;;;12.10;99.90;;;;;;5017999;28;20045;-72
2022/06/01 00:14:24;;;;;;;8.18;7.13;;;12.10;99.90;;;;;;5034238;28;20052;-72
2022/06/01 00:16:55;;;;;;;8.55;7.65;;;12.10;99.90;;;;;;5033989;28;20046;-72
2022/06/01 00:19:21;;;;;;;7.93;7.10;;;12.10;99.90;;;;;;5034308;28;20037;-72
2022/06/01 00:24:31;;;;;;;11.05;7.85;;;12.10;99.90;;;;;;5034399;28;20045;-72
2022/06/01 00:26:56;;;;;;;12.32;7.72;;;12.10;99.90;;;;;;5034402;28;20497;-72
2022/06/01 00:29:22;;;;;;;10.70;8.13;;;12.00;99.90;;;;;;5034105;28;20500;-72
2022/06/01 00:31:48;;;;;;;10.70;8.00;;;12.10;99.90;;;;;;5034029;28;20045;-72
2022/06/01 00:34:13;;;;;;;9.95;7.60;;;12.10;99.90;;;;;;5034013;28;20045;-72
2022/06/01 00:36:39;;;;;;;9.05;7.05;;;12.00;99.90;;;;;;5034201;28;20405;-72
2022/06/01 00:39:04;;;;;;;10.15;8.00;;;12.00;99.90;;;;;;5017433;28;20124;-73
2022/06/01 00:41:30;;;;;;;11.52;7.97;;;12.10;99.90;;;;;;5034128;28;20054;-73
2022/06/01 00:43:56;;;;;;;9.48;7.03;;;12.10;99.90;;;;;;5034036;28;20494;-72
2022/06/01 00:46:22;;;;;;;10.45;8.00;;;12.10;99.90;;;;;;5033747;28;20454;-72
2022/06/01 00:48:52;;;;;;;10.77;7.85;;;12.10;99.90;;;;;;5034322;28;20193;-72
2022/06/01 00:51:23;;;;;;;10.30;7.55;;;12.10;99.90;;;;;;5033986;28;20060;-73
2022/06/01 00:53:50;;;;;;;10.15;7.68;;;12.10;99.90;;;;;;5017339;28;20046;-72
2022/06/01 00:56:19;;;;;;;10.68;7.97;;;12.00;99.90;;;;;;5017410;28;20120;-73
2022/06/01 00:58:47;;;;;;;12.18;8.23;;;12.00;99.90;;;;;;5017065;28;20529;-72
2022/06/01 01:01:16;;;;;;;12.50;8.00;;;12.00;99.90;;;;;;5033796;28;20073;-72
2022/06/01 01:03:45;;;;;;;9.73;7.47;;;12.00;99.90;;;;;;5033396;28;20390;-72
2022/06/01 01:06:17;;;;;;;8.90;7.45;;;11.90;99.90;;;;;;5033366;28;20125;-72
2022/06/01 01:08:44;;;;;;;9.48;7.90;;;11.90;99.90;;;;;;5033365;28;20120;-72
2022/06/01 01:11:11;;;;;;;9.52;8.20;;;11.90;99.90;;;;;;5033570;28;20088;-72
2022/06/01 01:13:39;;;;;;;8.80;7.68;;;11.80;99.90;;;;;;5033442;28;20033;-72
2022/06/01 01:16:06;;;;;;;10.32;8.02;;;11.80;99.90;;;;;;5033124;28;20061;-72
2022/06/01 01:18:35;;;;;;;10.05;7.60;;;11.80;99.90;;;;;;5033163;28;20124;-72
2022/06/01 01:21:46;;;;;;;10.27;7.43;;;11.80;99.90;;;;;;5033334;28;20029;-72
2022/06/01 01:24:44;;;;;;;9.25;8.05;;;11.80;99.90;;;;;;5016516;28;20509;-72
2022/06/01 01:27:10;;;;;;;9.55;8.25;;;11.70;99.90;;;;;;5033314;28;20045;-72
2022/06/01 01:29:42;;;;;;;10.02;8.23;;;11.60;99.90;;;;;;5015794;28;20136;-72
2022/06/01 01:32:11;;;;;;;9.27;8.38;;;11.60;99.90;;;;;;5033214;28;20464;-72
2022/06/01 01:34:38;;;;;;;10.80;8.40;;;11.60;99.90;;;;;;5032478;28;20125;-72
2022/06/01 01:37:27;;;;;;;12.48;9.05;;;11.60;99.90;;;;;;5032941;28;20045;-72
2022/06/01 01:39:55;;;;;;;10.18;9.07;;;11.60;99.90;;;;;;5032775;28;20030;-72
2022/06/01 01:42:20;;;;;;;10.35;9.35;;;11.60;99.90;;;;;;5032697;28;20055;-73
2022/06/01 01:44:58;;;;;;;12.25;8.93;;;11.60;99.90;;;;;;5032574;28;20120;-72
2022/06/01 01:47:24;;;;;;;11.70;8.98;;;11.60;99.90;;;;;;5032626;28;20453;-72
2022/06/01 01:49:49;;;;;;;10.13;8.73;;;11.50;99.90;;;;;;5032529;28;20041;-73
2022/06/01 01:52:18;;;;;;;9.80;8.80;;;11.50;99.90;;;;;;5016121;28;20045;-73
2022/06/01 01:55:03;;;;;;;15.23;10.10;;;11.50;99.90;;;;;;5032525;28;20041;-72
2022/06/01 01:57:52;;;;;;;12.50;10.07;;;11.60;99.90;;;;;;5032723;28;20502;-73
2022/06/01 02:00:25;;;;;;;11.13;9.82;;;11.60;99.90;;;;;;5032378;28;20440;-72
2022/06/01 02:03:16;;;;;;;11.02;9.27;;;11.60;99.90;;;;;;5032578;28;20037;-71
2022/06/01 02:06:05;;;;;;;11.93;9.73;;;11.50;99.90;;;;;;5032586;28;20489;-72
2022/06/01 02:08:37;;;;;;;11.38;10.20;;;11.50;99.90;;;;;;5032304;28;20580;-72
2022/06/01 02:13:57;;;;;;;12.23;10.20;;;11.40;99.90;;;;;;5032093;28;20131;-72
2022/06/01 02:16:27;;;;;;;12.23;9.93;;;11.30;99.90;;;;;;5032133;28;20037;-73
2022/06/01 02:18:56;;;;;;;13.68;11.23;;;11.40;99.90;;;;;;5032114;28;20041;-72
2022/06/01 02:21:26;;;;;;;11.75;10.38;;;11.40;99.90;;;;;;5032057;28;20038;-73
2022/06/01 02:23:53;;;;;;;12.52;11.13;;;11.40;99.90;;;;;;5031956;28;20041;-72
2022/06/01 02:26:20;;;;;;;13.77;11.52;;;11.40;99.90;;;;;;5015554;28;20037;-72
2022/06/01 02:28:47;;;;;;;11.88;10.35;;;11.40;99.90;;;;;;5032229;28;20053;-72
2022/06/01 02:31:15;;;;;;;13.48;12.07;;;11.40;99.90;;;;;;5032229;28;20079;-72
2022/06/01 02:33:43;;;;;;;12.82;11.52;;;11.40;99.90;;;;;;5031791;28;20124;-72
2022/06/01 02:36:09;;;;;;;14.20;12.63;;;11.40;99.90;;;;;;5031850;28;20037;-72
2022/06/01 02:38:50;;;;;;;15.48;13.40;;;11.30;99.90;;;;;;5031861;28;20512;-72
2022/06/01 02:44:01;;;;;;;14.90;13.55;;;11.40;99.90;;;;;;5031777;28;20045;-72
2022/06/01 02:46:28;;;;;;;20.27;14.07;;;11.40;99.90;;;;;;5031779;28;20043;-72
2022/06/01 02:48:55;;;;;;;14.45;13.13;;;11.40;99.90;;;;;;5031756;28;20034;-72
2022/06/01 02:51:22;;;;;;;15.55;13.95;;;11.40;99.90;;;;;;5031763;28;20046;-73
2022/06/01 02:53:48;;;;;;;16.75;15.05;;;11.50;99.90;;;;;;5031679;28;20109;-72
2022/06/01 02:56:14;;;;;;;15.02;13.73;;;11.40;99.90;;;;;;5015177;28;20046;-72
2022/06/01 02:58:40;;;;;;;15.45;14.00;;;11.50;99.90;;;;;;5031682;28;20034;-72
2022/06/01 03:01:06;;;;;;;15.82;14.23;;;11.50;99.90;;;;;;5031900;28;20041;-72
2022/06/01 03:03:33;;;;;;;16.33;14.70;;;11.50;99.90;;;;;;5031766;28;20398;-72
2022/06/01 03:05:58;;;;;;;15.73;13.88;;;11.50;99.90;;;;;;5031636;28;20049;-72
2022/06/01 03:08:25;;;;;;;16.65;15.15;;;11.50;99.90;;;;;;5031839;28;20038;-72
2022/06/01 03:10:51;;;;;;;16.88;15.18;;;11.50;99.90;;;;;;5031567;28;20077;-73
2022/06/01 03:13:21;;;;;;;16.92;15.30;;;11.40;99.90;;;;;;5031710;28;20060;-72
2022/06/01 03:15:47;;;;;;;16.13;14.52;;;11.50;99.90;;;;;;5031653;28;20433;-72
2022/06/01 03:18:13;;;;;;;19.20;16.17;;;11.40;99.90;;;;;;5015033;28;20038;-73
2022/06/01 03:20:40;;;;;;;17.30;15.35;;;11.40;99.90;;;;;;5031481;28;20049;-73
2022/06/01 03:23:05;;;;;;;17.92;16.10;;;11.50;99.90;;;;;;5031354;28;20042;-72
2022/06/01 03:25:31;;;;;;;17.85;16.13;;;11.50;99.90;;;;;;5031729;28;20128;-73
2022/06/01 03:27:59;;;;;;;17.40;15.70;;;11.40;99.90;;;;;;5014974;28;20498;-73
2022/06/01 03:30:26;;;;;;;17.40;15.70;;;11.40;99.90;;;;;;5031362;28;20049;-72
2022/06/01 03:32:52;;;;;;;18.15;16.45;;;11.40;99.90;;;;;;5014825;28;20041;-72
2022/06/01 03:35:23;;;;;;;17.60;15.75;;;11.40;99.90;;;;;;5031302;28;20088;-72
2022/06/01 03:37:49;;;;;;;18.50;16.58;;;11.40;99.90;;;;;;5031632;28;20059;-72
2022/06/01 03:40:17;;;;;;;18.98;17.13;;;11.40;99.90;;;;;;5031328;28;20557;-72
2022/06/01 03:42:43;;;;;;;17.40;15.77;;;11.40;99.90;;;;;;5031532;28;20049;-73
2022/06/01 03:47:55;;;;;;;17.80;16.00;;;11.40;99.90;;;;;;5031306;28;20498;-73
2022/06/01 03:50:23;;;;;;;17.13;15.23;;;11.40;99.90;;;;;;5015023;28;20046;-73
2022/06/01 03:52:49;;;;;;;16.88;15.27;;;11.40;99.90;;;;;;5016399;28;20461;-72
2022/06/01 03:55:15;;;;;;;18.15;16.45;;;11.40;99.90;;;;;;5034749;28;20038;-72
2022/06/01 03:57:42;;;;;;;19.27;17.38;;;11.40;99.90;;;;;;5034999;28;20053;-72
2022/06/01 04:00:13;;;;;;;19.60;17.70;;;11.40;99.90;;;;;;5018451;28;20041;-72
2022/06/01 04:02:39;;;;;;;18.48;16.77;;;11.40;99.90;;;;;;5034590;28;20033;-72
2022/06/01 04:05:06;;;;;;;20.58;18.58;;;11.40;99.90;;;;;;5034514;28;20048;-72
2022/06/01 04:07:31;;;;;;;20.98;18.90;;;11.40;99.90;;;;;;5034689;28;20045;-72
2022/06/01 04:09:57;;;;;;;19.73;17.73;;;11.40;99.90;;;;;;5034797;28;20049;-72
2022/06/01 04:12:22;;;;;;;20.13;18.13;;;11.40;99.90;;;;;;5018039;28;20040;-73
2022/06/01 04:14:48;;;;;;;21.00;18.92;;;11.40;99.90;;;;;;5034484;28;20041;-72
2022/06/01 04:17:14;;;;;;;20.45;18.40;;;11.40;99.90;;;;;;5034594;28;20410;-72
2022/06/01 04:19:39;;;;;;;19.60;17.80;;;11.30;99.90;;;;;;5034349;28;20042;-72
2022/06/01 04:22:07;;;;;;;21.13;18.98;;;11.40;99.90;;;;;;5034327;28;20036;-72
2022/06/01 04:24:34;;;;;;;19.15;17.25;;;11.40;99.90;;;;;;5034390;28;20045;-72
2022/06/01 04:27:00;;;;;;;20.25;18.25;;;11.40;99.90;;;;;;5017981;28;20049;-72
2022/06/01 04:29:26;;;;;;;20.17;18.20;;;11.30;99.90;;;;;;5034134;28;20459;-72
2022/06/01 04:32:05;;;;;;;17.88;16.13;;;11.40;99.90;;;;;;5034063;28;20095;-72
2022/06/01 04:34:31;;;;;;;20.48;18.45;;;11.40;99.90;;;;;;5033766;28;20426;-72
2022/06/01 04:36:57;;;;;;;19.80;17.90;;;11.40;99.90;;;;;;5017558;28;20029;-72
2022/06/01 04:39:23;;;;;;;20.17;18.17;;;11.40;99.90;;;;;;5017476;28;20037;-72
2022/06/01 04:41:49;;;;;;;21.02;19.02;;;11.40;99.90;;;;;;5017378;28;20045;-73
2022/06/01 04:44:16;;;;;;;20.05;18.15;;;11.50;99.90;;;;;;5033799;28;20048;-72
2022/06/01 04:46:42;;;;;;;20.95;19.05;;;11.50;99.90;;;;;;5033854;28;20038;-72
2022/06/01 04:49:07;;;;;;;21.20;19.20;;;11.50;99.90;;;;;;5017345;28;20129;-72
2022/06/01 04:51:34;;;;;;;22.10;20.00;;;11.50;99.90;;;;;;5033684;28;20037;-73
2022/06/01 04:53:59;;;;;;;20.48;18.42;;;11.50;99.90;;;;;;5033813;28;20041;-72
2022/06/01 04:56:25;;;;;;;21.30;19.23;;;11.60;99.90;;;;;;5033864;28;20556;-72
2022/06/01 04:58:50;;;;;;;19.48;17.58;;;11.60;99.90;;;;;;5033576;28;20441;-73
2022/06/01 05:01:16;;;;;;;20.48;18.48;;;11.60;99.90;;;;;;5033521;28;20080;-73
2022/06/01 05:03:42;;;;;;;19.50;17.80;;;11.60;99.90;;;;;;5032413;28;20033;-73
2022/06/01 05:06:07;;;;;;;21.08;19.17;;;11.60;99.90;;;;;;5017126;28;20056;-73
2022/06/01 05:08:33;;;;;;;20.30;18.40;;;11.70;99.90;;;;;;5033372;28;20517;-72
2022/06/01 05:10:58;;;;;;;20.77;18.75;;;11.70;99.90;;;;;;5033616;28;20128;-73
2022/06/01 05:13:24;;;;;;;20.50;18.50;;;11.70;99.90;;;;;;5033217;28;20486;-72
2022/06/01 05:15:52;;;;;;;21.17;19.17;;;11.70;99.90;;;;;;5016739;28;20041;-73
2022/06/01 05:18:19;;;;;;;21.73;19.73;;;11.70;99.90;;;;;;5033154;28;20506;-72
2022/06/01 05:20:45;;;;;;;19.33;17.58;;;11.80;99.90;;;;;;5016698;28;20413;-73
2022/06/01 05:23:11;;;;;;;20.98;19.00;;;11.80;99.90;;;;;;5033004;28;20037;-72
2022/06/01 05:25:37;;;;;;;18.60;16.77;;;11.80;99.90;;;;;;5033012;28;20545;-72
2022/06/01 05:28:02;;;;;;;18.98;17.10;;;11.80;99.90;;;;;;5033818;28;20140;-73
2022/06/01 05:30:28;;;;;;;17.30;15.70;;;11.80;99.90;;;;;;5032968;28;20040;-73
2022/06/01 05:32:54;;;;;;;19.50;17.70;;;11.80;99.90;;;;;;5016579;28;20149;-72
2022/06/01 05:35:19;;;;;;;19.80;18.00;;;11.80;99.90;;;;;;5032870;28;20486;-72
2022/06/01 05:37:45;;;;;;;18.27;16.48;;;11.90;99.90;;;;;;5016299;28;20037;-72
2022/06/01 05:40:11;;;;;;;17.23;15.55;;;11.90;99.90;;;;;;5032741;28;20072;-72
2022/06/01 05:42:37;;;;;;;15.00;13.57;;;11.90;99.90;;;;;;5032737;28;20457;-73
2022/06/01 05:45:03;;;;;;;14.07;12.70;;;12.00;99.90;;;;;;5032646;28;20064;-72
2022/06/01 05:47:29;;;;;;;13.93;12.45;;;12.00;99.90;;;;;;5032637;28;20073;-72
2022/06/01 05:49:54;;;;;;;17.83;16.08;;;12.00;99.90;;;;;;5016375;28;20111;-73
2022/06/01 05:52:20;;;;;;;20.05;17.83;;;12.00;99.90;;;;;;5032817;28;20052;-73
2022/06/01 05:54:47;;;;;;;19.50;17.60;;;12.00;99.90;;;;;;5032384;28;20577;-73
2022/06/01 05:57:13;;;;;;;21.50;19.33;;;12.00;99.90;;;;;;5032711;28;20386;-73
2022/06/01 05:59:38;;;;;;;23.17;20.85;;;12.00;99.90;;;;;;5032450;28;20080;-73
2022/06/01 06:02:04;;;;;;;23.92;21.63;;;12.10;99.90;;;;;;5032387;28;20037;-73
2022/06/01 06:04:30;;;;;;;23.88;21.48;;;12.10;99.90;;;;;;5032307;28;20053;-73
2022/06/01 06:06:56;;;;;;;24.17;21.88;;;12.10;99.90;;;;;;5032322;28;20096;-73
2022/06/01 06:09:24;;;;;;;25.20;22.63;;;12.20;99.90;;;;;;5032510;28;20041;-73
2022/06/01 06:11:51;;;;;;;25.55;22.90;;;12.10;99.90;;;;;;5032258;28;20124;-73
2022/06/01 06:14:17;;;;;;;25.15;22.65;;;12.20;99.90;;;;;;5015628;28;20124;-72
2022/06/01 06:16:43;;;;;;;22.65;20.45;;;12.30;99.90;;;;;;5032364;28;20120;-73
2022/06/01 06:19:10;;;;;;;23.80;21.50;;;12.40;99.90;;;;;;5032158;28;20038;-73
2022/06/01 06:21:36;;;;;;;23.55;21.13;;;12.50;99.90;;;;;;5015667;28;20132;-74
2022/06/01 06:24:10;;;;;;;23.20;20.98;;;12.60;99.90;;;;;;5031980;28;20124;-72
2022/06/01 06:26:38;;;;;;;22.48;20.30;;;12.70;99.90;;;;;;5032050;28;20081;-72
2022/06/01 06:29:07;;;;;;;23.38;21.10;;;12.80;99.90;;;;;;5032004;28;20076;-74
2022/06/01 06:31:33;;;;;;;21.15;19.02;;;12.80;99.90;;;;;;5032000;28;20050;-73
2022/06/01 06:33:58;;;;;;;22.67;20.58;;;13.00;99.90;;;;;;5031665;28;20037;-73
2022/06/01 06:36:24;;;;;;;22.05;19.95;;;13.20;99.90;;;;;;5032221;28;20038;-73
2022/06/01 06:38:50;;;;;;;21.33;19.13;;;13.30;99.90;;;;;;5031836;28;20387;-73
2022/06/01 06:41:15;;;;;;;21.52;19.30;;;13.40;99.90;;;;;;5031828;28;20044;-73
2022/06/01 06:43:42;;;;;;;20.88;18.67;;;13.40;99.90;;;;;;5031684;28;20040;-73
2022/06/01 06:46:16;;;;;;;21.58;19.48;;;13.50;99.90;;;;;;5032651;28;20050;-73
2022/06/01 06:48:43;;;;;;;19.48;17.48;;;13.60;99.90;;;;;;5031979;28;20056;-73
2022/06/01 06:51:10;;;;;;;18.70;16.75;;;13.60;99.90;;;;;;5015541;28;20041;-73
2022/06/01 06:53:36;;;;;;;17.63;15.90;;;13.70;99.90;;;;;;5031631;28;20040;-73
2022/06/01 06:56:03;;;;;;;17.38;15.55;;;13.70;99.90;;;;;;5015206;28;20051;-73
2022/06/01 06:58:29;;;;;;;15.43;13.85;;;13.80;99.90;;;;;;5031681;28;20132;-73
2022/06/01 07:00:54;;;;;;;18.15;16.42;;;14.00;99.90;;;;;;5032133;28;20041;-73
2022/06/01 07:03:20;;;;;;;18.67;14.52;;;14.10;99.90;;;;;;5031896;28;20041;-73
2022/06/01 07:08:30;;;;;;;13.43;12.13;;;14.10;99.90;;;;;;5031694;28;20041;-73
2022/06/01 07:10:58;;;;;;;12.05;10.85;;;14.10;99.90;;;;;;5031604;28;20042;-73
2022/06/01 07:13:24;;;;;;;11.40;10.30;;;14.10;99.90;;;;;;5031802;28;20104;-72
2022/06/01 07:16:07;;;;;;;11.05;9.48;;;14.20;99.90;;;;;;5015014;28;20417;-72
2022/06/01 07:18:34;;;;;;;;;;;14.10;99.90;;;;;;5032311;28;20037;-73
2022/06/01 07:20:59;;;;;;;12.50;11.27;;;14.00;99.90;;;;;;5031565;28;19917;-73
2022/06/01 07:23:25;;;;;;;13.63;12.23;;;14.00;99.90;;;;;;5015002;28;20107;-73
2022/06/01 07:25:52;;;;;;;13.45;12.10;;;13.90;99.90;;;;;;5031530;28;20060;-73
2022/06/01 07:28:21;;;;;;;14.00;12.30;;;13.80;99.90;;;;;;5033973;28;20041;-73
2022/06/01 07:30:48;;;;;;;18.60;13.18;;;13.70;99.90;;;;;;5035262;28;20041;-73
2022/06/01 07:33:14;;;;;;;13.63;11.43;;;13.60;99.90;;;;;;5035244;28;20041;-73
2022/06/01 07:35:39;;;;;;;14.32;12.80;;;13.50;99.90;;;;;;5035284;28;20410;-73
2022/06/01 07:43:33;;;;;;;12.65;11.02;;;13.20;99.90;;;;;;5035073;28;20128;-72
2022/06/01 07:45:58;;;;;;;8.18;6.00;;;13.10;99.90;;;;;;5035308;28;20077;-72
2022/06/01 07:48:24;;;;;;;9.95;5.25;;;13.00;99.90;;;;;;5018532;28;20037;-73
2022/06/01 07:50:51;;;;;;;4.85;3.78;;;12.90;99.90;;;;;;5018915;28;20040;-73
2022/06/01 07:53:17;;;;;;;7.78;4.93;;;12.80;99.90;;;;;;5034964;28;20124;-73
2022/06/01 07:55:42;;;;;;;5.32;4.40;;;12.70;99.90;;;;;;5034915;28;20057;-73
2022/06/01 07:58:09;;;;;;;6.30;4.97;;;12.60;99.90;;;;;;5035289;28;20059;-73
2022/06/01 08:00:35;;;;;;;7.10;6.40;;;12.50;99.90;;;;;;5034804;28;20044;-73
2022/06/01 08:03:01;;;;;;;7.25;6.45;;;12.50;99.90;;;;;;5018423;28;20505;-73
2022/06/01 08:05:27;;;;;;;6.95;6.25;;;12.40;99.90;;;;;;5034634;28;20083;-73
2022/06/01 08:07:52;;;;;;;6.32;5.70;;;12.50;99.90;;;;;;5034589;28;20049;-73
2022/06/01 08:10:20;;;;;;;7.07;5.57;;;12.40;99.90;;;;;;5034857;28;20038;-73
2022/06/01 08:15:31;;;;;;;6.80;4.78;;;12.40;99.90;;;;;;5035263;28;20124;-73
2022/06/01 08:17:57;;;;;;;5.88;5.00;;;12.40;99.90;;;;;;5017894;28;20048;-73
2022/06/01 08:20:24;;;;;;;5.10;4.60;;;12.40;99.90;;;;;;5034351;28;20030;-73
2022/06/01 08:22:51;;;;;;;6.55;4.47;;;12.40;99.90;;;;;;5034365;28;20080;-73
2022/06/01 08:25:17;;;;;;;8.23;3.95;;;12.40;99.90;;;;;;5034310;28;20037;-73
2022/06/01 08:27:43;;;;;;;5.03;3.33;;;12.40;99.90;;;;;;5034236;28;20037;-73
2022/06/01 08:30:10;;;;;;;4.78;3.50;;;12.40;99.90;;;;;;5017699;28;20056;-78
2022/06/01 08:32:35;;;;;;;4.32;2.97;;;12.40;99.90;;;;;;5034153;28;20033;-73
2022/06/01 08:35:03;;;;;;;3.53;2.25;;;12.40;99.90;;;;;;5017401;28;20103;-73
2022/06/01 08:37:28;;;;;;;5.47;2.33;;;12.50;99.90;;;;;;5034300;28;20120;-72
2022/06/01 08:39:54;;;;;;;3.55;2.72;;;12.70;99.90;;;;;;5033868;28;20145;-73
2022/06/01 08:42:21;;;;;;;4.25;3.53;;;13.00;99.90;;;;;;5033984;28;20045;-73
2022/06/01 08:44:49;;;;;;;4.82;3.80;;;13.30;99.90;;;;;;5033879;28;20037;-72
2022/06/01 08:47:37;;;;;;;7.13;5.97;;;13.70;99.90;;;;;;5034177;28;20107;-72
2022/06/01 08:50:07;;;;;;;7.50;5.90;;;14.00;99.90;;;;;;5033845;28;20042;-73
2022/06/01 08:52:33;;;;;;;6.50;5.90;;;14.30;99.90;;;;;;5034031;28;20041;-71
2022/06/01 08:54:59;;;;;;;6.28;5.68;;;14.50;99.90;;;;;;5033530;28;20034;-73
2022/06/01 08:57:28;;;;;;;8.20;5.35;;;14.80;99.90;;;;;;5033719;28;20050;-72
2022/06/01 09:00:09;;;;;;;9.68;8.70;;;15.00;99.90;;;;;;5017426;28;20033;-72
2022/06/01 09:02:47;;;;;;;8.45;7.65;;;15.20;99.90;;;;;;5033928;28;20037;-73
2022/06/01 09:05:23;;;;;;;8.80;6.75;;;15.30;99.90;;;;;;5033447;28;20037;-72
2022/06/01 09:07:54;;;;;;;6.55;5.60;;;15.50;99.90;;;;;;5033820;28;20041;-72
2022/06/01 09:10:34;;;;;;;7.55;6.63;;;15.80;99.90;;;;;;5017338;28;20042;-73
2022/06/01 09:13:25;;;;;;;10.60;6.97;;;16.10;99.90;;;;;;5033333;28;20051;-72
2022/06/01 09:16:01;;;;;;;8.15;7.28;;;16.40;99.90;;;;;;5033372;28;20207;-72
2022/06/01 09:18:32;;;;;;;7.97;6.90;;;16.60;99.90;;;;;;5033628;28;20030;-73
2022/06/01 09:23:44;;;;;;;7.45;6.65;;;16.80;99.90;;;;;;5033827;28;20045;-72
2022/06/01 09:26:26;;;;;;;6.72;5.60;;;16.80;99.90;;;;;;5033313;28;20099;-72
2022/06/01 09:28:55;;;;;;;6.70;5.72;;;16.90;99.90;;;;;;5033055;28;20056;-72
2022/06/01 09:31:29;;;;;;;6.68;6.03;;;17.00;99.90;;;;;;5016585;28;20536;-73
2022/06/01 09:34:15;;;;;;;5.20;4.70;;;17.10;99.90;;;;;;5033115;28;20041;-72
2022/06/01 09:36:54;;;;;;;3.90;3.03;;;17.00;99.90;;;;;;5032993;28;20122;-73
2022/06/01 09:39:20;;;;;;;4.68;2.72;;;16.80;99.90;;;;;;5033290;28;20037;-73
2022/06/01 09:41:46;;;;;;;4.53;2.95;;;16.70;99.90;;;;;;5032887;28;20099;-73
2022/06/01 09:44:18;;;;;;;4.30;2.90;;;16.60;99.90;;;;;;5033019;28;20059;-73
2022/06/01 09:46:56;;;;;;;4.18;3.40;;;16.50;99.90;;;;;;5033042;28;20045;-73
2022/06/01 09:49:30;;;;;;;5.38;3.45;;;16.40;99.90;;;;;;5032752;28;20033;-73
2022/06/01 09:52:02;;;;;;;5.80;3.92;;;16.20;99.90;;;;;;5032723;28;20406;-73
2022/06/01 09:54:30;;;;;;;;;;;16.20;99.90;;;;;;5032863;28;20100;-73
2022/06/01 09:56:57;;;;;;;3.38;2.65;;;16.10;99.90;;;;;;5032882;28;19986;-73
2022/06/01 10:08:11;;;;;;;7.43;1.08;;;17.20;99.90;;;;;;5032445;28;20049;-73
2022/06/01 10:10:38;;;;;;;5.15;1.50;;;17.50;99.90;;;;;;5032427;28;20055;-73
2022/06/01 10:13:06;;;;;;;1.95;1.35;;;17.30;99.90;;;;;;5032221;28;20049;-73
2022/06/01 10:15:42;;;;;;;2.03;1.10;;;17.20;99.90;;;;;;5032314;28;20048;-73
2022/06/01 10:18:21;;;;;;;1.50;1.30;;;17.00;99.90;;;;;;5032558;28;20120;-73
2022/06/01 10:21:03;;;;;;;2.65;1.10;;;16.70;99.90;;;;;;5032234;28;20041;-73
2022/06/01 10:24:03;;;;;;;2.40;1.40;;;16.40;99.90;;;;;;5032159;28;20045;-73
2022/06/01 10:26:39;;;;;;;2.15;1.25;;;16.30;99.90;;;;;;5015740;28;20041;-73
2022/06/01 10:29:17;;;;;;;1.90;1.20;;;16.20;99.90;;;;;;5032112;28;20044;-73
2022/06/01 10:32:12;;;;;;;2.97;2.17;;;16.20;99.90;;;;;;5032349;28;20060;-74
2022/06/01 10:34:45;;;;;;;3.67;3.20;;;16.10;99.90;;;;;;5031706;28;20075;-73
2022/06/01 10:37:20;;;;;;;;;;;16.00;99.90;;;;;;5032469;28;20038;-73
2022/06/01 10:40:06;;;;;;;5.00;3.15;;;15.80;99.90;;;;;;5032233;28;19924;-73
2022/06/01 10:45:32;;;;;;;4.32;3.42;;;15.60;99.90;;;;;;5032175;28;20053;-73
2022/06/01 10:48:12;;;;;;;3.15;2.35;;;15.50;99.90;;;;;;5031949;28;20457;-73
2022/06/01 10:50:39;;;;;;;3.08;1.48;;;15.40;99.90;;;;;;5032142;28;20037;-73
2022/06/01 10:53:24;;;;;;;3.42;1.52;;;15.10;99.90;;;;;;5015557;28;20130;-73
2022/06/01 10:55:50;;;;;;;5.05;1.65;;;14.80;99.90;;;;;;5031706;28;20132;-73
2022/06/01 10:58:23;;;;;;;7.22;1.48;;;14.50;99.90;;;;;;5032071;28;20125;-72
2022/06/01 11:01:00;;;;;;;4.80;2.20;;;14.30;99.90;;;;;;5031831;28;20616;-73
2022/06/01 11:03:53;;;;;;;5.05;1.70;;;14.20;99.90;;;;;;5018430;28;20053;-72
2022/06/01 11:06:45;;;;;;;6.75;2.25;;;14.20;99.90;;;;;;5036952;28;20056;-72
2022/06/01 11:09:43;;;;;;;5.40;1.93;;;14.30;99.90;;;;;;5036121;28;20095;-72
2022/06/01 11:12:52;;;;;;;4.07;1.30;;;14.70;99.90;;;;;;5036033;28;20037;-72
2022/06/01 11:15:36;;;;;;;2.17;1.10;;;15.20;99.90;;;;;;5036140;28;20049;-72
2022/06/01 11:18:07;;;;;;;1.13;0.45;;;15.90;99.90;;;;;;5035593;28;20124;-72
2022/06/01 11:20:50;;;;;;;1.25;0.70;;;16.30;99.90;;;;;;5035545;28;20045;-73
2022/06/01 11:23:27;;;;;;;0.60;0.40;;;16.70;99.90;;;;;;5035539;28;20512;-72
2022/06/01 11:26:14;;;;;;;0.93;0.40;;;17.00;99.90;;;;;;5035512;28;20041;-72
2022/06/01 11:28:59;;;;;;;1.70;0.40;;;17.10;99.90;;;;;;5035425;28;20042;-72
2022/06/01 11:31:27;;;;;;;1.77;0.50;;;16.90;99.90;;;;;;5035449;28;20052;-75
2022/06/01 11:34:04;;;;;;;0.80;0.30;;;16.60;99.90;;;;;;5034993;28;20409;-75
2022/06/01 11:36:50;;;;;;;1.20;0.40;;;16.40;99.90;;;;;;5035237;28;20069;-73
2022/06/01 11:39:33;;;;;;;1.45;0.40;;;16.10;99.90;;;;;;5035265;28;20117;-73
2022/06/01 11:42:26;;;;;;;;;;;15.80;99.90;;;;;;5035823;28;20052;-73
2022/06/01 11:45:11;;;;;;;2.05;0.70;;;15.50;99.90;;;;;;5019938;28;19921;-74
2022/06/01 11:47:53;;;;;;;64.35;15.98;;;15.30;99.90;;;;;;5035031;28;20156;-73
2022/06/01 11:50:42;;;;;;;8.05;1.70;;;15.10;99.90;;;;;;5034985;28;20494;-74
2022/06/01 11:53:11;;;;;;;2.33;1.20;;;14.90;99.90;;;;;;5018463;28;20044;-74
2022/06/01 11:55:37;;;;;;;3.88;1.50;;;14.70;99.90;;;;;;5018335;28;20049;-74
2022/06/01 11:58:14;;;;;;;5.07;1.17;;;14.60;99.90;;;;;;5034847;28;20038;-74
2022/06/01 12:00:48;;;;;;;4.97;1.30;;;14.50;99.90;;;;;;5034946;28;20083;-73
2022/06/01 12:03:17;;;;;;;2.67;1.35;;;14.80;99.90;;;;;;5018483;28;20044;-72
2022/06/01 12:06:01;;;;;;;4.65;1.27;;;15.30;99.90;;;;;;5034705;28;20095;-72
2022/06/01 12:08:38;;;;;;;1.98;1.10;;;15.90;99.90;;;;;;5034937;28;20056;-72
2022/06/01 12:11:09;;;;;;;4.22;1.30;;;16.20;99.90;;;;;;5034838;28;20124;-73
2022/06/01 12:13:38;;;;;;;2.38;1.20;;;16.20;99.90;;;;;;5033981;28;20041;-72
2022/06/01 12:16:04;;;;;;;1.48;1.00;;;16.30;99.90;;;;;;5034597;28;20053;-72
2022/06/01 12:18:31;;;;;;;2.95;1.30;;;16.20;99.90;;;;;;5034817;28;20064;-72
2022/06/01 12:21:29;;;;;;;3.30;1.50;;;16.20;99.90;;;;;;5034370;28;20112;-72
2022/06/01 12:30:02;;;;;;;1.17;0.90;;;16.40;99.90;;;;;;5034227;28;20057;-72
2022/06/01 12:32:30;;;;;;;0.98;0.80;;;16.60;99.90;;;;;;5034499;28;20037;-72
2022/06/01 12:35:06;;;;;;;2.63;1.00;;;17.10;99.90;;;;;;5017836;28;20543;-72
2022/06/01 12:38:04;;;;;;;2.10;1.20;;;17.40;99.90;;;;;;5034399;28;20490;-73
2022/06/01 12:40:29;;;;;;;1.83;1.20;;;17.80;99.90;;;;;;4958615;28;20534;-72
2022/06/01 12:42:58;;;;;;;1.95;1.10;;;18.10;99.90;;;;;;4958127;28;20070;-72
2022/06/01 12:45:35;;;;;;;2.72;0.93;;;18.20;99.90;;;;;;4958221;28;20062;-73
2022/06/01 12:48:09;;;;;;;2.33;1.27;;;18.10;99.90;;;;;;4958414;28;20047;-72
2022/06/01 12:50:50;;;;;;;1.05;0.80;;;17.90;99.90;;;;;;4958215;28;20097;-73
2022/06/01 12:53:26;;;;;;;7.05;1.70;;;17.50;99.90;;;;;;4958306;28;20504;-73
2022/06/01 12:56:11;;;;;;;3.72;1.02;;;16.90;99.90;;;;;;4958002;28;20074;-73
2022/06/01 12:58:40;;;;;;;6.88;1.17;;;16.20;99.90;;;;;;4958109;28;20129;-73
2022/06/01 13:01:06;;;;;;;3.88;1.40;;;15.60;99.90;;;;;;4957950;28;20097;-73
2022/06/01 13:03:35;;;;;;;4.22;1.20;;;15.30;99.90;;;;;;4957861;28;20047;-73
2022/06/01 13:06:07;;;;;;;5.78;1.25;;;15.10;99.90;;;;;;4957756;28;20050;-72
2022/06/01 13:08:37;;;;;;;4.50;1.60;;;15.00;99.90;;;;;;4941835;28;20491;-73
2022/06/01 13:11:12;;;;;;;5.60;1.33;;;14.80;99.90;;;;;;4957963;28;20050;-73
2022/06/01 13:13:37;;;;;;;6.00;1.35;;;14.90;99.90;;;;;;4957683;28;20077;-73
2022/06/01 13:16:05;;;;;;;2.42;1.40;;;15.00;99.90;;;;;;4969159;28;20079;-72
2022/06/01 13:18:38;;;;;;;2.75;1.17;;;15.40;99.90;;;;;;5033611;28;20068;-73
2022/06/01 13:21:10;;;;;;;1.95;0.95;;;15.90;99.90;;;;;;5033289;28;20441;-73
2022/06/01 13:23:47;;;;;;;1.65;0.80;;;16.20;99.90;;;;;;5033316;28;20037;-74
2022/06/01 13:26:17;;;;;;;1.55;0.70;;;16.40;99.90;;;;;;5032321;28;20045;-74
2022/06/01 13:28:46;;;;;;;1.33;0.52;;;16.40;99.90;;;;;;5033453;28;20505;-73
2022/06/01 13:31:13;;;;;;;1.83;0.95;;;16.30;99.90;;;;;;5033101;28;20073;-73
2022/06/01 13:33:42;;;;;;;1.65;0.70;;;16.20;99.90;;;;;;5016680;28;20101;-73
2022/06/01 13:36:11;;;;;;;0.90;0.45;;;16.00;99.90;;;;;;5016531;28;20048;-73
2022/06/01 13:38:49;;;;;;;1.40;0.60;;;15.80;99.90;;;;;;5016482;28;20100;-73